Time;durP1;ratioP1;P1;durP2;ratioP2;P2;SDS_P1;SDS_P2;PMS_P1;PMS_P2;Temp;Humidity;BMP_temperature;BMP_pressure;BME280_temperature;BME280_humidity;BME280_pressure;Samples;Min_cycle;Max_cycle;Signal;HPM_P1;HPM_P2
2023/08/31 00:01:00;;;;;;;1.95;0.77;;;;;;;22.13;68.70;99209.66;7392033;19;20025;-88
2023/08/31 00:03:26;;;;;;;0.50;0.38;;;;;;;22.30;67.61;99213.38;7394235;19;20026;-93
2023/08/31 00:05:53;;;;;;;0.45;0.45;;;;;;;22.00;68.27;99207.81;7392515;19;20014;-94
2023/08/31 00:08:22;;;;;;;1.45;0.85;;;;;;;21.93;68.38;99207.81;7392206;19;20014;-90
2023/08/31 00:10:58;;;;;;;0.57;0.38;;;;;;;21.35;68.74;99205.94;7389149;19;20368;-93
2023/08/31 00:13:24;;;;;;;0.20;0.20;;;;;;;21.51;71.00;99201.75;7397765;19;20025;-95
2023/08/31 00:15:50;;;;;;;0.85;0.40;;;;;;;21.12;72.11;99206.66;7396841;19;20031;-91
2023/08/31 00:18:16;;;;;;;0.20;0.20;;;;;;;20.97;72.26;99195.28;7397240;19;20417;-92
2023/08/31 00:20:42;;;;;;;6.60;0.75;;;;;;;20.32;75.10;99198.84;7395675;19;20014;-92
2023/08/31 00:23:08;;;;;;;1.98;1.13;;;;;;;20.38;77.93;99196.59;7399571;19;20010;-86
2023/08/31 00:25:34;;;;;;;0.47;0.28;;;;;;;21.01;72.97;99195.66;7401108;19;20509;-90
2023/08/31 00:28:04;;;;;;;0.65;0.50;;;;;;;21.49;76.17;99198.75;7397931;19;20050;-94
2023/08/31 00:30:31;;;;;;;0.93;0.82;;;;;;;22.17;68.96;99199.44;7394947;19;20018;-91
2023/08/31 00:33:01;;;;;;;0.95;0.68;;;;;;;21.69;69.35;99189.28;7392964;19;20015;-83
2023/08/31 00:35:28;;;;;;;0.30;0.30;;;;;;;22.46;67.39;99186.44;7397144;19;20086;-82
2023/08/31 00:37:58;;;;;;;0.57;0.57;;;;;;;21.72;68.13;99182.50;7393789;19;20332;-82
2023/08/31 00:40:25;;;;;;;0.20;0.20;;;;;;;23.53;62.96;99175.22;7392907;19;20457;-83
2023/08/31 00:42:51;;;;;;;0.80;0.68;;;;;;;23.66;60.80;99172.06;7392834;19;20011;-82
2023/08/31 00:45:19;;;;;;;1.70;0.30;;;;;;;26.38;53.04;99176.66;7398595;19;20015;-82
2023/08/31 00:47:47;;;;;;;0.20;0.20;;;;;;;24.65;56.39;99164.66;7395496;19;20092;-82
2023/08/31 00:50:13;;;;;;;0.65;0.65;;;;;;;22.74;61.60;99161.94;7398574;19;20038;-82
2023/08/31 00:52:41;;;;;;;0.25;0.25;;;;;;;23.04;60.59;99175.94;7391646;19;20369;-82
2023/08/31 00:55:09;;;;;;;0.60;0.50;;;;;;;24.17;56.44;99165.69;7395409;19;20022;-82
2023/08/31 00:57:35;;;;;;;0.55;0.40;;;;;;;29.99;48.76;99154.38;7392349;19;20479;-82
2023/08/31 01:00:06;;;;;;;0.90;0.90;;;;;;;24.83;52.09;99165.41;7393065;19;20038;-82
2023/08/31 01:02:40;;;;;;;0.65;0.22;;;;;;;23.34;56.49;99155.88;7395277;19;20018;-82
2023/08/31 01:05:13;;;;;;;10.18;0.85;;;;;;;22.12;58.86;99165.59;7398623;19;20010;-82
2023/08/31 01:07:58;;;;;;;0.22;0.22;;;;;;;22.56;58.54;99172.41;7396284;19;20052;-82
2023/08/31 01:10:37;;;;;;;0.32;0.32;;;;;;;21.70;61.04;99173.81;7393205;19;20011;-82
2023/08/31 01:13:13;;;;;;;0.52;0.35;;;;;;;24.16;55.24;99158.47;7393033;19;20041;-82
2023/08/31 01:15:46;;;;;;;1.48;1.13;;;;;;;21.25;61.19;99171.72;7391731;19;20448;-82
2023/08/31 01:18:16;;;;;;;1.05;1.05;;;;;;;24.62;56.33;99156.56;7391901;19;20023;-82
2023/08/31 01:20:57;;;;;;;1.00;0.98;;;;;;;22.85;57.99;99158.66;7391562;19;20027;-82
2023/08/31 01:23:29;;;;;;;;;;;;;;;21.80;60.25;99155.66;7395157;19;20045;-82
2023/08/31 01:25:55;;;;;;;0.30;0.30;;;;;;;21.49;61.46;99173.25;7394778;19;19951;-82
2023/08/31 01:28:22;;;;;;;0.43;0.43;;;;;;;21.20;62.13;99171.94;7396311;19;20019;-82
2023/08/31 01:30:48;;;;;;;0.57;0.57;;;;;;;21.20;62.04;99186.09;7394674;19;20034;-82
2023/08/31 01:33:15;;;;;;;0.98;0.45;;;;;;;21.24;62.70;99177.97;7391601;19;20484;-82
2023/08/31 01:35:49;;;;;;;0.20;0.20;;;;;;;20.99;62.82;99183.38;7396008;19;20089;-82
2023/08/31 01:38:21;;;;;;;0.52;0.52;;;;;;;19.62;66.58;99178.44;7391016;19;20484;-83
2023/08/31 01:40:58;;;;;;;1.00;0.57;;;;;;;19.07;71.75;99186.25;7391232;19;20007;-82
2023/08/31 01:43:25;;;;;;;0.40;0.40;;;;;;;20.19;68.76;99179.13;7394234;19;20018;-82
2023/08/31 01:45:51;;;;;;;0.93;0.55;;;;;;;20.80;65.99;99180.91;7394720;19;20078;-82
2023/08/31 01:48:18;;;;;;;0.93;0.93;;;;;;;20.91;66.03;99180.56;7392956;19;20011;-82
2023/08/31 01:50:44;;;;;;;1.20;1.10;;;;;;;21.11;64.82;99188.16;7392138;19;20358;-83
2023/08/31 01:53:10;;;;;;;0.40;0.40;;;;;;;21.94;61.50;99186.66;7390558;19;20015;-82
2023/08/31 01:55:37;;;;;;;1.05;0.77;;;;;;;21.17;62.66;99185.16;7391562;19;20011;-82
2023/08/31 01:58:03;;;;;;;3.80;1.27;;;;;;;22.11;59.21;99173.34;7390227;19;20018;-82
2023/08/31 02:00:34;;;;;;;0.20;0.20;;;;;;;25.63;54.44;99164.53;7390292;19;20018;-82
2023/08/31 02:03:01;;;;;;;0.40;0.40;;;;;;;26.64;45.24;99167.88;7392546;19;20015;-82
2023/08/31 02:05:27;;;;;;;0.30;0.30;;;;;;;22.81;54.56;99172.47;7398472;19;20029;-82
2023/08/31 02:07:53;;;;;;;0.30;0.30;;;;;;;27.09;51.22;99171.09;7392030;19;20013;-82
2023/08/31 02:10:20;;;;;;;0.82;0.63;;;;;;;23.17;51.46;99170.00;7391213;19;20029;-81
2023/08/31 02:12:46;;;;;;;1.65;0.85;;;;;;;21.34;56.68;99184.56;7390844;19;20015;-81
2023/08/31 02:15:12;;;;;;;3.50;0.60;;;;;;;22.73;53.65;99177.47;7394282;19;20018;-82
2023/08/31 02:17:38;;;;;;;0.32;0.32;;;;;;;20.94;58.48;99179.41;7390586;19;20010;-82
2023/08/31 02:20:06;;;;;;;0.73;0.43;;;;;;;20.83;58.98;99179.78;7394475;19;20026;-81
2023/08/31 02:22:34;;;;;;;0.70;0.70;;;;;;;20.36;60.46;99182.25;7391795;19;20031;-82
2023/08/31 02:25:03;;;;;;;0.73;0.73;;;;;;;21.09;58.69;99179.47;7395635;19;20371;-82
2023/08/31 02:27:29;;;;;;;0.88;0.77;;;;;;;20.96;59.08;99176.78;7393309;19;20006;-82
2023/08/31 02:29:55;;;;;;;0.82;0.60;;;;;;;20.67;59.94;99177.47;7392072;19;20014;-82
2023/08/31 02:32:21;;;;;;;0.73;0.40;;;;;;;26.70;53.01;99168.34;7390699;19;20015;-82
2023/08/31 02:34:47;;;;;;;1.65;0.68;;;;;;;21.25;57.74;99179.47;7389550;19;20059;-82
2023/08/31 02:37:14;;;;;;;1.52;0.63;;;;;;;22.77;54.76;99175.72;7393651;19;20022;-82
2023/08/31 02:39:40;;;;;;;0.35;0.35;;;;;;;23.80;51.60;99171.16;7392886;19;20037;-82
2023/08/31 02:42:07;;;;;;;0.13;0.13;;;;;;;17.58;64.66;99175.34;7391356;19;20014;-82
2023/08/31 02:44:34;;;;;;;1.95;1.15;;;;;;;15.06;90.31;99186.06;7391383;19;20309;-82
2023/08/31 02:47:00;;;;;;;0.47;0.47;;;;;;;20.01;73.70;99174.53;7390226;19;20018;-82
2023/08/31 02:49:26;;;;;;;2.88;0.80;;;;;;;20.31;69.44;99171.88;7395012;19;20011;-82
2023/08/31 02:51:52;;;;;;;0.30;0.30;;;;;;;20.42;67.48;99176.44;7390998;19;20013;-82
2023/08/31 02:54:19;;;;;;;0.47;0.28;;;;;;;20.11;67.75;99172.69;7391043;19;20420;-82
2023/08/31 02:56:45;;;;;;;0.43;0.43;;;;;;;20.03;68.12;99177.56;7390683;19;20434;-83
2023/08/31 02:59:12;;;;;;;0.40;0.40;;;;;;;20.05;68.20;99178.53;7390843;19;20018;-81
2023/08/31 03:01:39;;;;;;;1.10;0.40;;;;;;;20.12;67.93;99177.78;7392799;19;20014;-82
2023/08/31 03:04:05;;;;;;;0.50;0.50;;;;;;;20.07;67.66;99175.13;7390243;19;20048;-82
2023/08/31 03:06:32;;;;;;;0.70;0.70;;;;;;;19.94;68.01;99167.53;7391280;19;20014;-82
2023/08/31 03:08:58;;;;;;;0.60;0.60;;;;;;;20.04;67.75;99162.88;7390693;19;20469;-82
2023/08/31 03:11:25;;;;;;;0.30;0.30;;;;;;;19.93;68.16;99162.41;7393630;19;20014;-82
2023/08/31 03:13:51;;;;;;;1.23;0.50;;;;;;;19.84;68.16;99160.84;7389937;19;20468;-82
2023/08/31 03:16:17;;;;;;;0.65;0.65;;;;;;;20.10;67.73;99159.88;7388826;19;20014;-82
2023/08/31 03:18:43;;;;;;;0.98;0.80;;;;;;;20.27;67.49;99154.53;7389918;19;20022;-82
2023/08/31 03:21:09;;;;;;;1.95;0.73;;;;;;;20.28;67.22;99147.53;7391408;19;20021;-82
2023/08/31 03:23:36;;;;;;;0.45;0.45;;;;;;;20.03;68.00;99146.47;7390418;19;20489;-82
2023/08/31 03:26:11;;;;;;;1.85;0.40;;;;;;;20.11;67.98;99150.84;7390083;19;20011;-82
2023/08/31 03:28:38;;;;;;;0.60;0.60;;;;;;;19.72;69.33;99150.44;7389969;19;20086;-82
2023/08/31 03:31:04;;;;;;;0.75;0.60;;;;;;;20.05;68.18;99157.97;7392757;19;20093;-82
2023/08/31 03:33:30;;;;;;;0.43;0.43;;;;;;;19.94;69.18;99155.47;7388344;19;20077;-82
2023/08/31 03:36:00;;;;;;;1.10;0.80;;;;;;;20.53;67.88;99153.47;7390474;19;20025;-82
2023/08/31 03:38:27;;;;;;;0.90;0.60;;;;;;;20.51;67.51;99154.03;7388492;19;20011;-82
2023/08/31 03:40:55;;;;;;;3.60;0.60;;;;;;;20.64;67.50;99151.03;7389816;19;20108;-82
2023/08/31 03:43:21;;;;;;;4.57;0.70;;;;;;;20.56;67.19;99147.44;7389550;19;20027;-82
2023/08/31 03:45:47;;;;;;;0.57;0.57;;;;;;;20.36;66.97;99142.66;7391280;19;20029;-82
2023/08/31 03:48:13;;;;;;;0.55;0.40;;;;;;;20.44;65.84;99146.28;7396751;19;20014;-82
2023/08/31 03:50:40;;;;;;;0.35;0.35;;;;;;;19.84;67.20;99154.47;7397270;19;20017;-83
2023/08/31 03:53:06;;;;;;;0.43;0.43;;;;;;;19.50;68.42;99154.63;7393342;19;20074;-82
2023/08/31 03:55:32;;;;;;;0.47;0.47;;;;;;;19.27;69.58;99154.44;7393765;19;20022;-82
2023/08/31 03:57:59;;;;;;;0.52;0.45;;;;;;;19.31;70.03;99154.84;7393697;19;20017;-82
2023/08/31 04:00:25;;;;;;;2.38;0.50;;;;;;;19.13;70.24;99152.97;7393929;19;20011;-82
2023/08/31 04:02:54;;;;;;;0.40;0.40;;;;;;;19.16;70.17;99149.06;7397398;19;20014;-82
2023/08/31 04:05:22;;;;;;;0.60;0.60;;;;;;;19.14;70.22;99146.03;7397000;19;20022;-82
2023/08/31 04:07:48;;;;;;;0.77;0.77;;;;;;;19.17;70.61;99144.91;7397502;19;20464;-82
2023/08/31 04:10:14;;;;;;;0.50;0.50;;;;;;;19.29;69.66;99151.03;7394782;19;20509;-82
2023/08/31 04:12:42;;;;;;;0.82;0.82;;;;;;;19.30;69.73;99146.91;7394228;19;20465;-82
2023/08/31 04:15:09;;;;;;;0.60;0.60;;;;;;;19.29;70.72;99151.81;7393626;19;20081;-83
2023/08/31 04:17:36;;;;;;;0.50;0.50;;;;;;;19.32;70.88;99161.22;7393692;19;20707;-82
2023/08/31 04:20:05;;;;;;;1.13;0.73;;;;;;;19.30;70.75;99153.31;7397664;19;20109;-82
2023/08/31 04:22:31;;;;;;;1.90;0.43;;;;;;;19.25;70.76;99164.75;7396248;19;20015;-82
2023/08/31 04:24:57;;;;;;;0.20;0.20;;;;;;;19.43;70.04;99158.91;7396117;19;20018;-82
2023/08/31 04:27:24;;;;;;;3.72;0.70;;;;;;;19.43;70.13;99161.72;7396269;19;20591;-82
2023/08/31 04:29:50;;;;;;;0.38;0.38;;;;;;;15.22;92.46;99173.19;7396053;19;20039;-82
2023/08/31 04:32:16;;;;;;;0.20;0.20;;;;;;;18.87;78.82;99167.22;7395535;19;20027;-82
2023/08/31 04:34:42;;;;;;;0.73;0.70;;;;;;;19.22;74.57;99163.03;7393641;19;20484;-82
2023/08/31 04:37:08;;;;;;;0.20;0.20;;;;;;;17.71;83.15;99172.53;7393575;19;20112;-82
2023/08/31 04:39:34;;;;;;;5.68;0.63;;;;;;;14.50;97.78;99177.28;7395416;19;20015;-82
2023/08/31 04:42:00;;;;;;;0.30;0.30;;;;;;;14.16;100.00;99178.72;7396972;19;20025;-82
2023/08/31 04:44:26;;;;;;;2.70;0.43;;;;;;;12.19;100.00;99175.03;7396504;19;20416;-82
2023/08/31 04:46:52;;;;;;;4.50;0.68;;;;;;;14.85;100.00;99173.75;7395241;19;20019;-82
2023/08/31 04:49:19;;;;;;;0.70;0.70;;;;;;;19.03;90.38;99180.19;7397150;19;20089;-82
2023/08/31 04:51:46;;;;;;;1.00;0.50;;;;;;;15.23;100.00;99185.91;7393910;19;20048;-81
2023/08/31 04:54:12;;;;;;;0.73;0.73;;;;;;;18.36;97.13;99180.94;7395828;19;20010;-81
2023/08/31 04:56:38;;;;;;;0.95;0.95;;;;;;;16.48;93.61;99196.25;7396807;19;20014;-82
2023/08/31 04:59:04;;;;;;;0.40;0.40;;;;;;;24.10;69.54;99176.53;7392680;19;20022;-81
2023/08/31 05:01:30;;;;;;;2.50;0.70;;;;;;;20.18;81.69;99186.13;7393727;19;20505;-82
2023/08/31 05:03:57;;;;;;;0.30;0.30;;;;;;;12.56;100.00;99207.66;7396568;19;20036;-82
2023/08/31 05:06:23;;;;;;;0.38;0.38;;;;;;;27.66;59.45;99165.13;7395682;19;20042;-82
2023/08/31 05:08:49;;;;;;;1.13;0.60;;;;;;;20.68;74.23;99182.56;7393148;19;20020;-82
2023/08/31 05:11:16;;;;;;;0.52;0.50;;;;;;;20.69;76.72;99181.25;7391796;19;20027;-82
2023/08/31 05:13:42;;;;;;;1.88;0.43;;;;;;;26.92;62.36;99169.94;7392817;19;20022;-81
2023/08/31 05:16:09;;;;;;;0.82;0.17;;;;;;;22.14;63.73;99177.88;7392977;19;20023;-81
2023/08/31 05:18:35;;;;;;;1.45;0.63;;;;;;;20.80;71.95;99186.56;7394281;19;20018;-81
2023/08/31 05:21:03;;;;;;;0.80;0.80;;;;;;;20.64;73.47;99187.81;7392827;19;20054;-81
2023/08/31 05:23:29;;;;;;;1.08;0.43;;;;;;;20.45;74.37;99187.38;7394152;19;20502;-81
2023/08/31 05:26:01;;;;;;;1.13;0.57;;;;;;;20.22;75.93;99190.13;7394149;19;20029;-82
2023/08/31 05:28:27;;;;;;;0.57;0.57;;;;;;;20.33;75.24;99184.16;7395384;19;20074;-81
2023/08/31 05:30:57;;;;;;;1.23;0.40;;;;;;;20.15;76.47;99190.06;7392355;19;20014;-81
2023/08/31 05:33:25;;;;;;;1.00;0.63;;;;;;;20.35;75.17;99187.19;7391476;19;20023;-81
2023/08/31 05:35:51;;;;;;;1.38;1.27;;;;;;;20.41;75.05;99184.16;7393721;19;20681;-81
2023/08/31 05:38:17;;;;;;;15.27;0.93;;;;;;;20.55;75.10;99185.56;7393090;19;20034;-81
2023/08/31 05:40:46;;;;;;;0.50;0.50;;;;;;;20.46;75.61;99186.09;7391966;19;20014;-81
2023/08/31 05:43:13;;;;;;;1.05;0.95;;;;;;;20.08;76.91;99185.09;7393718;19;20634;-81
2023/08/31 05:45:39;;;;;;;2.72;0.70;;;;;;;20.06;77.81;99182.09;7393754;19;20026;-81
2023/08/31 05:48:05;;;;;;;0.32;0.32;;;;;;;20.14;79.00;99172.34;7394381;19;20010;-81
2023/08/31 05:50:31;;;;;;;0.40;0.40;;;;;;;18.89;83.36;99170.25;7390323;19;20035;-81
2023/08/31 05:52:58;;;;;;;0.73;0.73;;;;;;;19.45;85.24;99176.03;7392919;19;20022;-82
2023/08/31 05:55:24;;;;;;;4.28;1.40;;;;;;;19.84;81.42;99172.16;7396739;19;20022;-82
2023/08/31 05:57:50;;;;;;;2.05;0.57;;;;;;;19.95;82.88;99171.09;7391040;19;20465;-82
2023/08/31 06:00:17;;;;;;;1.05;0.40;;;;;;;20.82;77.22;99172.59;7388681;19;20018;-81
2023/08/31 06:02:47;;;;;;;0.22;0.22;;;;;;;20.47;76.67;99181.94;7392852;19;20015;-82
2023/08/31 06:05:16;;;;;;;0.70;0.70;;;;;;;18.61;87.39;99184.25;7398342;19;20022;-82
2023/08/31 06:07:45;;;;;;;0.55;0.55;;;;;;;20.79;79.24;99176.53;7392380;19;20115;-82
2023/08/31 06:10:11;;;;;;;0.40;0.40;;;;;;;20.99;75.04;99175.66;7389288;19;20015;-81
2023/08/31 06:12:37;;;;;;;0.40;0.40;;;;;;;20.91;74.02;99183.38;7390540;19;20021;-82
2023/08/31 06:15:04;;;;;;;1.80;1.10;;;;;;;21.30;74.47;99181.38;7393954;19;20083;-82
2023/08/31 06:17:30;;;;;;;1.30;0.65;;;;;;;20.69;74.81;99181.25;7390118;19;20022;-81
2023/08/31 06:19:57;;;;;;;0.55;0.55;;;;;;;20.92;74.65;99184.88;7394117;19;20019;-81
2023/08/31 06:22:24;;;;;;;0.57;0.57;;;;;;;20.92;75.65;99190.53;7393550;19;20026;-81
2023/08/31 06:24:51;;;;;;;0.40;0.40;;;;;;;21.59;72.80;99182.69;7397439;19;20026;-81
2023/08/31 06:27:18;;;;;;;0.68;0.55;;;;;;;21.14;73.79;99180.59;7391430;19;20019;-81
2023/08/31 06:29:44;;;;;;;0.63;0.63;;;;;;;21.80;73.43;99178.31;7390636;19;20022;-82
2023/08/31 06:32:10;;;;;;;0.50;0.50;;;;;;;22.04;72.23;99174.13;7391860;19;20018;-81
2023/08/31 06:34:36;;;;;;;0.40;0.40;;;;;;;22.55;71.21;99188.69;7395804;19;20022;-81
2023/08/31 06:37:03;;;;;;;1.40;1.13;;;;;;;22.16;71.50;99180.91;7390915;19;20082;-81
2023/08/31 06:39:29;;;;;;;0.40;0.40;;;;;;;21.74;74.21;99179.84;7390574;19;20024;-81
2023/08/31 06:41:56;;;;;;;1.20;0.60;;;;;;;21.99;73.84;99183.59;7391492;19;20022;-81
2023/08/31 06:44:30;;;;;;;0.35;0.35;;;;;;;22.21;73.31;99185.63;7393234;19;20010;-81
2023/08/31 06:46:56;;;;;;;0.73;0.47;;;;;;;22.36;73.19;99182.72;7394815;19;20022;-81
2023/08/31 06:49:23;;;;;;;0.50;0.30;;;;;;;22.45;72.51;99173.59;7393685;19;20018;-81
2023/08/31 06:51:49;;;;;;;4.38;0.85;;;;;;;22.83;71.54;99172.66;7389380;19;20367;-81
2023/08/31 06:54:15;;;;;;;1.00;0.47;;;;;;;22.79;71.92;99178.00;7394302;19;20349;-81
2023/08/31 06:56:42;;;;;;;1.10;0.85;;;;;;;22.70;73.08;99181.47;7390870;19;20022;-81
2023/08/31 06:59:08;;;;;;;1.40;0.85;;;;;;;23.23;72.07;99176.19;7389575;19;20479;-81
2023/08/31 07:01:34;;;;;;;0.95;0.65;;;;;;;23.01;72.39;99177.09;7390372;19;20422;-81
2023/08/31 07:04:01;;;;;;;2.65;1.00;;;;;;;22.73;73.22;99174.63;7392403;19;20018;-81
2023/08/31 07:06:27;;;;;;;1.00;0.90;;;;;;;22.72;73.76;99184.47;7390898;19;20037;-81
2023/08/31 07:08:53;;;;;;;0.50;0.50;;;;;;;22.58;74.29;99181.88;7390450;19;20025;-82
2023/08/31 07:11:19;;;;;;;0.85;0.85;;;;;;;22.79;72.67;99180.81;7388099;19;20010;-81
2023/08/31 07:13:45;;;;;;;1.08;0.75;;;;;;;22.72;72.94;99195.84;7391033;19;20038;-81
2023/08/31 07:16:11;;;;;;;2.40;1.10;;;;;;;22.71;73.22;99194.31;7390071;19;20485;-81
2023/08/31 07:18:37;;;;;;;1.75;1.08;;;;;;;22.79;72.88;99186.50;7390414;19;20015;-81
2023/08/31 07:21:08;;;;;;;4.82;1.45;;;;;;;23.42;72.05;99187.81;7387981;19;20014;-82
2023/08/31 07:23:34;;;;;;;1.13;0.67;;;;;;;23.42;72.48;99187.03;7390312;19;20007;-82
2023/08/31 07:26:01;;;;;;;2.28;0.55;;;;;;;23.87;71.86;99187.38;7391204;19;20610;-82
2023/08/31 07:28:27;;;;;;;3.42;0.60;;;;;;;22.69;75.75;99189.22;7388543;19;20014;-82
2023/08/31 07:31:04;;;;;;;0.43;0.40;;;;;;;23.06;77.45;99182.56;7389209;19;20014;-82
2023/08/31 07:33:31;;;;;;;1.70;0.68;;;;;;;22.93;77.62;99188.53;7389721;19;20017;-82
2023/08/31 07:35:58;;;;;;;1.35;0.90;;;;;;;23.08;79.07;99193.34;7390040;19;20021;-81
2023/08/31 07:38:26;;;;;;;1.00;0.45;;;;;;;24.17;73.77;99191.28;7390132;19;20060;-81
2023/08/31 07:40:52;;;;;;;3.40;0.85;;;;;;;24.34;72.90;99183.50;7387504;19;20014;-82
2023/08/31 07:43:19;;;;;;;1.20;1.13;;;;;;;24.51;72.46;99183.47;7388426;19;20036;-81
2023/08/31 07:45:45;;;;;;;2.28;0.88;;;;;;;25.24;69.75;99187.19;7391920;19;20015;-81
2023/08/31 07:48:11;;;;;;;0.40;0.30;;;;;;;25.17;69.25;99185.22;7389457;19;20078;-81
2023/08/31 07:50:39;;;;;;;4.43;0.95;;;;;;;25.24;69.35;99181.50;7388021;19;20002;-81
2023/08/31 07:53:06;;;;;;;2.10;0.68;;;;;;;25.26;68.80;99187.34;7388750;19;20015;-81
2023/08/31 07:55:32;;;;;;;1.00;0.40;;;;;;;25.32;68.76;99187.81;7386190;19;20425;-81
2023/08/31 07:57:59;;;;;;;0.40;0.35;;;;;;;25.54;68.13;99185.97;7387523;19;20013;-81
2023/08/31 08:00:25;;;;;;;0.20;0.20;;;;;;;25.68;67.96;99177.75;7385746;19;20014;-81
2023/08/31 08:02:51;;;;;;;0.40;0.40;;;;;;;25.67;68.24;99176.25;7388494;19;20019;-81
2023/08/31 08:05:17;;;;;;;0.80;0.52;;;;;;;25.55;69.44;99170.38;7388097;19;20022;-81
2023/08/31 08:07:43;;;;;;;2.05;0.63;;;;;;;26.04;68.93;99175.56;7388639;19;20015;-82
2023/08/31 08:10:11;;;;;;;1.13;0.70;;;;;;;26.35;68.90;99183.56;7388791;19;20054;-82
2023/08/31 08:12:46;;;;;;;1.58;1.15;;;;;;;26.41;69.76;99172.56;7386796;19;20006;-81
2023/08/31 08:15:13;;;;;;;0.22;0.20;;;;;;;26.28;70.83;99182.34;7388487;19;20038;-82
2023/08/31 08:17:39;;;;;;;0.30;0.13;;;;;;;26.48;71.90;99177.38;7389047;19;20021;-81
2023/08/31 08:20:07;;;;;;;0.47;0.47;;;;;;;26.80;71.50;99166.22;7390009;19;20025;-81
2023/08/31 08:22:33;;;;;;;1.55;0.57;;;;;;;27.06;70.81;99167.34;7391097;19;20027;-81
2023/08/31 08:24:59;;;;;;;1.20;0.75;;;;;;;27.09;70.69;99165.41;7387421;19;20351;-82
2023/08/31 08:27:25;;;;;;;0.52;0.52;;;;;;;28.31;67.10;99158.78;7387181;19;20021;-81
2023/08/31 08:29:51;;;;;;;0.50;0.50;;;;;;;27.78;69.27;99160.25;7386859;19;20017;-81
2023/08/31 08:32:18;;;;;;;2.38;0.45;;;;;;;27.93;69.10;99159.84;7387576;19;20015;-81
2023/08/31 08:34:44;;;;;;;2.05;0.95;;;;;;;27.64;70.38;99167.84;7395887;19;20037;-82
2023/08/31 08:37:10;;;;;;;2.97;0.57;;;;;;;27.71;71.33;99166.91;7393659;19;20109;-81
2023/08/31 08:39:36;;;;;;;0.40;0.40;;;;;;;28.03;71.23;99157.66;7392899;19;20015;-82
2023/08/31 08:42:04;;;;;;;3.53;0.47;;;;;;;27.84;72.53;99154.91;7395031;19;20579;-82
2023/08/31 08:44:32;;;;;;;0.63;0.45;;;;;;;27.85;73.25;99161.41;7394634;19;20019;-82
2023/08/31 08:47:03;;;;;;;0.30;0.25;;;;;;;28.32;71.99;99155.31;7398209;19;20019;-82
2023/08/31 08:49:31;;;;;;;2.85;0.45;;;;;;;28.12;71.68;99153.97;7399142;19;20022;-82
2023/08/31 08:51:59;;;;;;;1.48;0.10;;;;;;;28.25;71.68;99155.53;7396606;19;20354;-82
2023/08/31 08:54:25;;;;;;;0.22;0.10;;;;;;;28.73;70.35;99152.22;7396383;19;20027;-82
2023/08/31 08:56:51;;;;;;;3.63;0.30;;;;;;;29.26;69.76;99154.19;7394133;19;20381;-82
2023/08/31 08:59:18;;;;;;;0.65;0.55;;;;;;;30.31;65.39;99158.41;7398210;19;20018;-82
2023/08/31 09:01:45;;;;;;;0.75;0.30;;;;;;;32.12;61.29;99153.94;7392193;19;20020;-82
2023/08/31 09:04:12;;;;;;;0.10;0.05;;;;;;;30.20;63.20;99158.44;7390935;19;20345;-83
2023/08/31 09:06:39;;;;;;;0.75;0.43;;;;;;;31.54;60.24;99155.91;7392047;19;20018;-82
2023/08/31 09:09:07;;;;;;;2.55;0.30;;;;;;;33.03;54.18;99146.16;7392030;19;20018;-82
2023/08/31 09:11:33;;;;;;;1.20;0.45;;;;;;;37.40;48.78;99149.22;7394687;19;20090;-82
2023/08/31 09:13:59;;;;;;;0.15;0.15;;;;;;;33.93;52.95;99153.13;7393625;19;20019;-82
2023/08/31 09:16:28;;;;;;;0.40;0.22;;;;;;;34.90;48.54;99146.34;7391619;19;20078;-83
2023/08/31 09:18:55;;;;;;;0.25;0.17;;;;;;;40.53;38.84;99149.13;7393294;19;20014;-84
2023/08/31 09:21:24;;;;;;;0.90;0.13;;;;;;;35.47;44.46;99157.94;7393617;19;20018;-83
2023/08/31 09:23:57;;;;;;;0.50;0.50;;;;;;;30.71;53.14;99154.97;7395073;19;20022;-82
2023/08/31 09:26:24;;;;;;;0.55;0.20;;;;;;;30.03;56.11;99156.00;7394905;19;20366;-83
2023/08/31 09:28:51;;;;;;;13.05;1.20;;;;;;;31.94;56.83;99158.03;7394269;19;20180;-83
2023/08/31 09:31:17;;;;;;;0.93;0.22;;;;;;;25.55;65.93;99165.41;7392461;19;20018;-82
2023/08/31 09:33:51;;;;;;;0.20;0.10;;;;;;;26.91;73.58;99157.03;7391859;19;20010;-82
2023/08/31 09:36:18;;;;;;;0.98;0.35;;;;;;;26.64;75.77;99162.16;7396568;19;20049;-83
2023/08/31 09:38:45;;;;;;;0.38;0.30;;;;;;;28.21;72.48;99155.28;7392842;19;20401;-82
2023/08/31 09:41:11;;;;;;;0.10;0.10;;;;;;;28.64;69.00;99150.22;7393010;19;20023;-82
2023/08/31 09:43:37;;;;;;;1.10;0.05;;;;;;;30.84;58.45;99139.13;7392606;19;20013;-81
2023/08/31 09:46:04;;;;;;;0.17;0.17;;;;;;;28.81;65.43;99135.53;7394540;19;20022;-82
2023/08/31 09:48:31;;;;;;;0.10;0.00;;;;;;;29.22;65.14;99139.59;7395553;19;20422;-82
2023/08/31 09:50:58;;;;;;;2.47;0.17;;;;;;;29.27;66.35;99135.63;7394046;19;20078;-83
2023/08/31 09:53:24;;;;;;;0.98;0.32;;;;;;;29.89;63.33;99135.78;7390780;19;20015;-82
2023/08/31 09:55:52;;;;;;;0.70;0.10;;;;;;;32.98;54.87;99135.78;7391087;19;20014;-83
2023/08/31 09:58:20;;;;;;;0.95;0.13;;;;;;;28.98;61.42;99132.31;7390909;19;20078;-83
2023/08/31 10:00:48;;;;;;;3.67;0.52;;;;;;;30.86;57.67;99142.16;7391384;19;20413;-83
2023/08/31 10:03:15;;;;;;;0.55;0.20;;;;;;;29.29;64.24;99126.38;7392272;19;20018;-83
2023/08/31 10:05:49;;;;;;;3.40;0.90;;;;;;;33.74;55.19;99127.75;7393974;19;20018;-84
2023/08/31 10:08:16;;;;;;;0.75;0.22;;;;;;;38.28;41.70;99121.06;7393667;19;20011;-83
2023/08/31 10:10:44;;;;;;;0.20;0.10;;;;;;;35.43;45.29;99119.41;7391663;19;20451;-83
2023/08/31 10:13:11;;;;;;;1.65;0.20;;;;;;;35.50;45.82;99112.41;7390964;19;20022;-83
2023/08/31 10:15:37;;;;;;;0.40;0.28;;;;;;;33.33;48.02;99121.56;7390310;19;20025;-82
2023/08/31 10:18:06;;;;;;;1.20;0.45;;;;;;;32.29;47.73;99123.06;7390166;19;20015;-84
2023/08/31 10:20:33;;;;;;;1.85;0.50;;;;;;;30.55;52.19;99124.56;7391014;19;20010;-84
2023/08/31 10:23:04;;;;;;;0.93;0.38;;;;;;;30.33;54.32;99121.19;7392509;19;20375;-84
2023/08/31 10:25:45;;;;;;;;;;;;;;;30.38;55.66;99116.41;7394401;19;20022;-83
2023/08/31 10:28:19;;;;;;;0.93;0.20;;;;;;;30.42;55.62;99111.66;7391777;19;19922;-83
2023/08/31 10:31:15;;;;;;;2.05;0.70;;;;;;;30.85;53.78;99114.75;7392123;19;20097;-83
2023/08/31 10:33:45;;;;;;;0.63;0.13;;;;;;;31.21;52.84;99111.00;7392483;19;20020;-83
2023/08/31 10:36:17;;;;;;;2.92;0.85;;;;;;;31.10;52.78;99108.22;7394539;19;20019;-83
2023/08/31 10:39:17;;;;;;;0.40;0.25;;;;;;;30.92;53.83;99107.97;7391158;19;20370;-83
2023/08/31 10:41:54;;;;;;;;;;;;;;;30.89;54.43;99106.38;7392155;19;20018;-83
2023/08/31 10:44:24;;;;;;;0.20;0.10;;;;;;;31.04;53.63;99105.75;7390739;19;20259;-83
2023/08/31 10:46:51;;;;;;;0.10;0.10;;;;;;;31.14;53.92;99106.31;7394397;19;20134;-81
2023/08/31 10:49:22;;;;;;;0.13;0.13;;;;;;;31.13;51.83;99101.19;7391319;19;20010;-81
2023/08/31 10:52:08;;;;;;;;;;;;;;;31.19;52.63;99105.13;7389566;19;20018;-84
2023/08/31 10:54:34;;;;;;;0.43;0.17;;;;;;;31.09;52.46;99106.72;7388623;19;19918;-83
2023/08/31 10:57:08;;;;;;;0.55;0.30;;;;;;;31.22;51.20;99109.63;7388665;19;20039;-83
2023/08/31 10:59:53;;;;;;;1.85;0.20;;;;;;;31.38;50.91;99098.22;7388708;19;20102;-82
2023/08/31 11:02:58;;;;;;;0.20;0.00;;;;;;;31.66;50.28;99096.84;7390620;19;20532;-82
2023/08/31 11:05:25;;;;;;;12.80;0.47;;;;;;;32.26;48.87;99095.50;7387128;19;20018;-82
2023/08/31 11:07:56;;;;;;;9.77;0.20;;;;;;;31.95;50.90;99099.03;7388279;19;20019;-81
2023/08/31 11:10:24;;;;;;;2.63;0.65;;;;;;;31.90;50.33;99103.09;7390230;19;20011;-82
2023/08/31 11:12:53;;;;;;;0.35;0.10;;;;;;;31.91;49.32;99090.16;7388844;19;20022;-82
2023/08/31 11:15:22;;;;;;;0.03;0.00;;;;;;;31.88;49.44;99091.47;7390103;19;20022;-83
2023/08/31 11:17:52;;;;;;;6.53;0.30;;;;;;;31.79;48.76;99093.19;7390860;19;20015;-83
2023/08/31 11:20:20;;;;;;;;;;;;;;;31.97;48.34;99099.13;7392718;19;20094;-82
2023/08/31 11:22:54;;;;;;;0.17;0.17;;;;;;;31.87;48.20;99095.72;7393979;19;19946;-82
2023/08/31 11:25:23;;;;;;;1.08;0.10;;;;;;;35.48;43.11;99081.22;7389372;19;20022;-83
2023/08/31 11:27:57;;;;;;;0.73;0.22;;;;;;;39.86;36.87;99068.44;7390016;19;20014;-83
2023/08/31 11:30:25;;;;;;;1.10;0.47;;;;;;;34.28;42.95;99083.78;7387780;19;20070;-83
2023/08/31 11:32:52;;;;;;;1.83;0.10;;;;;;;32.92;45.07;99078.50;7388583;19;20019;-83
2023/08/31 11:35:20;;;;;;;2.33;0.70;;;;;;;32.92;45.26;99085.03;7392209;19;20010;-83
2023/08/31 11:37:51;;;;;;;2.08;0.40;;;;;;;32.03;46.80;99080.00;7389938;19;20015;-83